sensor_id;sensor_type;location;lat;lon;timestamp;P1;durP1;ratioP1;P2;durP2;ratioP2
71730;SDS011;65964;43.496;3.710;2023-08-06T00:00:41;5.75;;;2.47;;
71730;SDS011;65964;43.496;3.710;2023-08-06T00:03:07;3.58;;;2.20;;
71730;SDS011;65964;43.496;3.710;2023-08-06T00:05:33;5.18;;;2.05;;
71730;SDS011;65964;43.496;3.710;2023-08-06T00:08:00;4.40;;;2.28;;
71730;SDS011;65964;43.496;3.710;2023-08-06T00:10:26;4.65;;;2.58;;
71730;SDS011;65964;43.496;3.710;2023-08-06T00:12:52;4.18;;;1.73;;
71730;SDS011;65964;43.496;3.710;2023-08-06T00:15:18;2.83;;;1.70;;
71730;SDS011;65964;43.496;3.710;2023-08-06T00:17:44;3.58;;;1.80;;
71730;SDS011;65964;43.496;3.710;2023-08-06T00:20:10;7.63;;;3.90;;
71730;SDS011;65964;43.496;3.710;2023-08-06T00:22:36;5.20;;;2.40;;
71730;SDS011;65964;43.496;3.710;2023-08-06T00:25:03;4.35;;;2.03;;
71730;SDS011;65964;43.496;3.710;2023-08-06T00:27:29;3.40;;;1.83;;
71730;SDS011;65964;43.496;3.710;2023-08-06T00:29:55;4.30;;;2.30;;
71730;SDS011;65964;43.496;3.710;2023-08-06T00:32:22;3.75;;;1.73;;
71730;SDS011;65964;43.496;3.710;2023-08-06T00:34:48;6.88;;;2.00;;
71730;SDS011;65964;43.496;3.710;2023-08-06T00:37:17;4.85;;;1.80;;
71730;SDS011;65964;43.496;3.710;2023-08-06T00:39:43;4.30;;;1.88;;
71730;SDS011;65964;43.496;3.710;2023-08-06T00:42:10;4.82;;;1.92;;
71730;SDS011;65964;43.496;3.710;2023-08-06T00:44:36;3.50;;;1.83;;
71730;SDS011;65964;43.496;3.710;2023-08-06T00:47:02;2.58;;;1.50;;
71730;SDS011;65964;43.496;3.710;2023-08-06T00:49:28;3.83;;;1.70;;
71730;SDS011;65964;43.496;3.710;2023-08-06T00:51:54;3.35;;;1.80;;
71730;SDS011;65964;43.496;3.710;2023-08-06T00:54:21;3.65;;;1.70;;
71730;SDS011;65964;43.496;3.710;2023-08-06T00:56:47;4.22;;;2.30;;
71730;SDS011;65964;43.496;3.710;2023-08-06T00:59:13;4.93;;;2.67;;
71730;SDS011;65964;43.496;3.710;2023-08-06T01:01:39;5.70;;;3.20;;
71730;SDS011;65964;43.496;3.710;2023-08-06T01:04:06;17.02;;;12.07;;
71730;SDS011;65964;43.496;3.710;2023-08-06T01:06:44;36.08;;;29.60;;
71730;SDS011;65964;43.496;3.710;2023-08-06T01:14:37;10.90;;;5.68;;
71730;SDS011;65964;43.496;3.710;2023-08-06T01:17:07;6.45;;;3.10;;
71730;SDS011;65964;43.496;3.710;2023-08-06T01:19:33;6.43;;;2.50;;
71730;SDS011;65964;43.496;3.710;2023-08-06T01:21:59;5.47;;;2.53;;
71730;SDS011;65964;43.496;3.710;2023-08-06T01:24:25;8.35;;;2.67;;
71730;SDS011;65964;43.496;3.710;2023-08-06T01:26:55;6.03;;;2.65;;
71730;SDS011;65964;43.496;3.710;2023-08-06T01:29:26;7.75;;;2.50;;
71730;SDS011;65964;43.496;3.710;2023-08-06T01:31:53;7.07;;;2.22;;
71730;SDS011;65964;43.496;3.710;2023-08-06T01:34:22;6.20;;;2.50;;
71730;SDS011;65964;43.496;3.710;2023-08-06T01:36:50;6.05;;;2.55;;
71730;SDS011;65964;43.496;3.710;2023-08-06T01:39:16;6.25;;;2.40;;
71730;SDS011;65964;43.496;3.710;2023-08-06T01:41:45;6.65;;;2.58;;
71730;SDS011;65964;43.496;3.710;2023-08-06T01:44:11;7.00;;;2.22;;
71730;SDS011;65964;43.496;3.710;2023-08-06T01:46:37;7.28;;;2.40;;
71730;SDS011;65964;43.496;3.710;2023-08-06T01:49:03;5.75;;;2.20;;
71730;SDS011;65964;43.496;3.710;2023-08-06T01:51:29;4.80;;;2.20;;
71730;SDS011;65964;43.496;3.710;2023-08-06T01:53:55;6.95;;;2.42;;
71730;SDS011;65964;43.496;3.710;2023-08-06T01:56:21;6.35;;;2.40;;
71730;SDS011;65964;43.496;3.710;2023-08-06T01:58:47;7.82;;;2.40;;
71730;SDS011;65964;43.496;3.710;2023-08-06T02:01:14;4.97;;;2.47;;
71730;SDS011;65964;43.496;3.710;2023-08-06T02:03:40;4.72;;;2.05;;
71730;SDS011;65964;43.496;3.710;2023-08-06T02:06:06;6.85;;;2.08;;
71730;SDS011;65964;43.496;3.710;2023-08-06T02:08:33;6.25;;;2.50;;
71730;SDS011;65964;43.496;3.710;2023-08-06T02:10:59;6.78;;;2.90;;
71730;SDS011;65964;43.496;3.710;2023-08-06T02:13:25;7.97;;;2.50;;
71730;SDS011;65964;43.496;3.710;2023-08-06T02:15:51;6.90;;;2.38;;
71730;SDS011;65964;43.496;3.710;2023-08-06T02:18:17;8.95;;;2.67;;
71730;SDS011;65964;43.496;3.710;2023-08-06T02:20:43;6.47;;;2.47;;
71730;SDS011;65964;43.496;3.710;2023-08-06T02:23:09;6.78;;;2.88;;
71730;SDS011;65964;43.496;3.710;2023-08-06T02:25:35;8.68;;;2.55;;
71730;SDS011;65964;43.496;3.710;2023-08-06T02:28:01;6.38;;;2.47;;
71730;SDS011;65964;43.496;3.710;2023-08-06T02:30:27;9.10;;;2.70;;
71730;SDS011;65964;43.496;3.710;2023-08-06T02:32:53;6.95;;;2.65;;
71730;SDS011;65964;43.496;3.710;2023-08-06T02:35:19;10.57;;;3.22;;
71730;SDS011;65964;43.496;3.710;2023-08-06T02:37:45;10.57;;;4.65;;
71730;SDS011;65964;43.496;3.710;2023-08-06T02:40:11;14.02;;;6.38;;
71730;SDS011;65964;43.496;3.710;2023-08-06T02:42:37;11.35;;;4.30;;
71730;SDS011;65964;43.496;3.710;2023-08-06T02:45:03;9.93;;;3.33;;
71730;SDS011;65964;43.496;3.710;2023-08-06T02:47:30;7.68;;;2.53;;
71730;SDS011;65964;43.496;3.710;2023-08-06T02:49:57;6.25;;;2.20;;
71730;SDS011;65964;43.496;3.710;2023-08-06T02:52:22;5.30;;;2.20;;
71730;SDS011;65964;43.496;3.710;2023-08-06T02:54:49;5.85;;;2.22;;
71730;SDS011;65964;43.496;3.710;2023-08-06T02:57:15;8.85;;;2.95;;
71730;SDS011;65964;43.496;3.710;2023-08-06T02:59:40;10.45;;;2.53;;
71730;SDS011;65964;43.496;3.710;2023-08-06T03:02:07;11.63;;;4.93;;
71730;SDS011;65964;43.496;3.710;2023-08-06T03:04:32;18.20;;;9.52;;
71730;SDS011;65964;43.496;3.710;2023-08-06T03:06:58;14.35;;;9.02;;
71730;SDS011;65964;43.496;3.710;2023-08-06T03:09:24;13.45;;;8.90;;
71730;SDS011;65964;43.496;3.710;2023-08-06T03:11:51;19.75;;;11.75;;
71730;SDS011;65964;43.496;3.710;2023-08-06T03:14:17;24.10;;;14.60;;
71730;SDS011;65964;43.496;3.710;2023-08-06T03:16:43;17.90;;;8.45;;
71730;SDS011;65964;43.496;3.710;2023-08-06T03:19:08;17.38;;;10.43;;
71730;SDS011;65964;43.496;3.710;2023-08-06T03:21:34;17.75;;;10.98;;
71730;SDS011;65964;43.496;3.710;2023-08-06T03:24:00;23.40;;;15.55;;
71730;SDS011;65964;43.496;3.710;2023-08-06T03:26:26;23.30;;;14.75;;
71730;SDS011;65964;43.496;3.710;2023-08-06T03:28:52;18.67;;;11.18;;
71730;SDS011;65964;43.496;3.710;2023-08-06T03:31:18;19.30;;;9.73;;
71730;SDS011;65964;43.496;3.710;2023-08-06T03:33:44;17.35;;;8.77;;
71730;SDS011;65964;43.496;3.710;2023-08-06T03:36:11;11.75;;;6.45;;
71730;SDS011;65964;43.496;3.710;2023-08-06T03:38:37;12.57;;;5.70;;
71730;SDS011;65964;43.496;3.710;2023-08-06T03:41:03;15.77;;;7.38;;
71730;SDS011;65964;43.496;3.710;2023-08-06T03:43:29;14.27;;;6.50;;
71730;SDS011;65964;43.496;3.710;2023-08-06T03:45:55;14.90;;;7.68;;
71730;SDS011;65964;43.496;3.710;2023-08-06T03:48:21;18.00;;;10.55;;
71730;SDS011;65964;43.496;3.710;2023-08-06T03:50:47;18.55;;;10.90;;
71730;SDS011;65964;43.496;3.710;2023-08-06T03:53:13;20.10;;;10.90;;
71730;SDS011;65964;43.496;3.710;2023-08-06T03:55:39;16.25;;;9.88;;
71730;SDS011;65964;43.496;3.710;2023-08-06T03:58:05;18.73;;;10.68;;
71730;SDS011;65964;43.496;3.710;2023-08-06T04:00:31;17.50;;;7.57;;
71730;SDS011;65964;43.496;3.710;2023-08-06T04:02:57;13.27;;;5.65;;
71730;SDS011;65964;43.496;3.710;2023-08-06T04:05:23;11.32;;;4.07;;
71730;SDS011;65964;43.496;3.710;2023-08-06T04:07:49;15.05;;;4.13;;
71730;SDS011;65964;43.496;3.710;2023-08-06T04:10:15;13.73;;;4.50;;
71730;SDS011;65964;43.496;3.710;2023-08-06T04:12:41;13.10;;;5.63;;
71730;SDS011;65964;43.496;3.710;2023-08-06T04:15:07;12.05;;;4.40;;
71730;SDS011;65964;43.496;3.710;2023-08-06T04:17:33;13.23;;;4.97;;
71730;SDS011;65964;43.496;3.710;2023-08-06T04:19:59;15.90;;;8.10;;
71730;SDS011;65964;43.496;3.710;2023-08-06T04:22:25;18.23;;;8.73;;
71730;SDS011;65964;43.496;3.710;2023-08-06T04:24:51;26.45;;;11.88;;
71730;SDS011;65964;43.496;3.710;2023-08-06T04:27:18;23.38;;;11.77;;
71730;SDS011;65964;43.496;3.710;2023-08-06T04:29:45;18.52;;;7.20;;
71730;SDS011;65964;43.496;3.710;2023-08-06T04:32:11;14.00;;;5.80;;
71730;SDS011;65964;43.496;3.710;2023-08-06T04:34:38;17.15;;;6.38;;
71730;SDS011;65964;43.496;3.710;2023-08-06T04:37:04;12.98;;;4.60;;
71730;SDS011;65964;43.496;3.710;2023-08-06T04:39:30;14.68;;;4.43;;
71730;SDS011;65964;43.496;3.710;2023-08-06T04:41:56;14.35;;;4.03;;
71730;SDS011;65964;43.496;3.710;2023-08-06T04:44:22;10.85;;;3.83;;
71730;SDS011;65964;43.496;3.710;2023-08-06T04:46:48;14.32;;;3.63;;
71730;SDS011;65964;43.496;3.710;2023-08-06T04:49:15;11.80;;;3.17;;
71730;SDS011;65964;43.496;3.710;2023-08-06T04:51:41;13.82;;;3.50;;
71730;SDS011;65964;43.496;3.710;2023-08-06T04:54:07;11.45;;;3.10;;
71730;SDS011;65964;43.496;3.710;2023-08-06T04:56:33;15.27;;;3.58;;
71730;SDS011;65964;43.496;3.710;2023-08-06T04:58:59;12.75;;;4.35;;
71730;SDS011;65964;43.496;3.710;2023-08-06T05:01:25;14.73;;;4.45;;
71730;SDS011;65964;43.496;3.710;2023-08-06T05:03:51;17.98;;;4.25;;
71730;SDS011;65964;43.496;3.710;2023-08-06T05:06:17;16.92;;;4.57;;
71730;SDS011;65964;43.496;3.710;2023-08-06T05:08:43;14.93;;;5.05;;
71730;SDS011;65964;43.496;3.710;2023-08-06T05:11:09;16.50;;;4.63;;
71730;SDS011;65964;43.496;3.710;2023-08-06T05:13:35;12.10;;;4.65;;
71730;SDS011;65964;43.496;3.710;2023-08-06T05:16:01;15.25;;;4.20;;
71730;SDS011;65964;43.496;3.710;2023-08-06T05:18:27;10.63;;;3.40;;
71730;SDS011;65964;43.496;3.710;2023-08-06T05:20:55;10.52;;;3.03;;
71730;SDS011;65964;43.496;3.710;2023-08-06T05:23:22;10.20;;;2.60;;
71730;SDS011;65964;43.496;3.710;2023-08-06T05:25:48;12.82;;;2.80;;
71730;SDS011;65964;43.496;3.710;2023-08-06T05:28:14;12.15;;;3.45;;
71730;SDS011;65964;43.496;3.710;2023-08-06T05:30:40;10.82;;;2.85;;
71730;SDS011;65964;43.496;3.710;2023-08-06T05:33:06;9.23;;;3.15;;
71730;SDS011;65964;43.496;3.710;2023-08-06T05:35:32;11.13;;;3.13;;
71730;SDS011;65964;43.496;3.710;2023-08-06T05:37:58;14.52;;;2.95;;
71730;SDS011;65964;43.496;3.710;2023-08-06T05:40:24;8.60;;;2.70;;
71730;SDS011;65964;43.496;3.710;2023-08-06T05:42:51;7.85;;;3.05;;
71730;SDS011;65964;43.496;3.710;2023-08-06T05:45:17;10.48;;;3.13;;
71730;SDS011;65964;43.496;3.710;2023-08-06T05:47:43;12.18;;;2.70;;
71730;SDS011;65964;43.496;3.710;2023-08-06T05:50:09;7.60;;;2.47;;
71730;SDS011;65964;43.496;3.710;2023-08-06T05:52:36;7.82;;;2.45;;
71730;SDS011;65964;43.496;3.710;2023-08-06T05:55:02;8.55;;;2.67;;
71730;SDS011;65964;43.496;3.710;2023-08-06T05:57:28;9.80;;;2.70;;
71730;SDS011;65964;43.496;3.710;2023-08-06T05:59:54;10.52;;;2.80;;
71730;SDS011;65964;43.496;3.710;2023-08-06T06:02:20;6.72;;;2.38;;
71730;SDS011;65964;43.496;3.710;2023-08-06T06:04:46;7.20;;;2.60;;
71730;SDS011;65964;43.496;3.710;2023-08-06T06:07:12;9.95;;;3.03;;
71730;SDS011;65964;43.496;3.710;2023-08-06T06:09:39;9.13;;;2.60;;
71730;SDS011;65964;43.496;3.710;2023-08-06T06:12:05;9.75;;;2.55;;
71730;SDS011;65964;43.496;3.710;2023-08-06T06:14:31;7.15;;;2.45;;
71730;SDS011;65964;43.496;3.710;2023-08-06T06:16:58;10.55;;;2.67;;
71730;SDS011;65964;43.496;3.710;2023-08-06T06:19:25;10.32;;;2.78;;
71730;SDS011;65964;43.496;3.710;2023-08-06T06:21:52;6.70;;;2.65;;
71730;SDS011;65964;43.496;3.710;2023-08-06T06:24:19;9.65;;;2.95;;
71730;SDS011;65964;43.496;3.710;2023-08-06T06:26:45;10.90;;;2.58;;
71730;SDS011;65964;43.496;3.710;2023-08-06T06:29:11;8.82;;;3.00;;
71730;SDS011;65964;43.496;3.710;2023-08-06T06:31:37;9.35;;;3.10;;
71730;SDS011;65964;43.496;3.710;2023-08-06T06:34:03;9.80;;;3.22;;
71730;SDS011;65964;43.496;3.710;2023-08-06T06:36:29;6.47;;;2.20;;
71730;SDS011;65964;43.496;3.710;2023-08-06T06:38:55;10.82;;;3.00;;
71730;SDS011;65964;43.496;3.710;2023-08-06T06:41:21;8.02;;;2.90;;
71730;SDS011;65964;43.496;3.710;2023-08-06T06:43:47;9.68;;;2.83;;
71730;SDS011;65964;43.496;3.710;2023-08-06T06:46:13;9.00;;;2.92;;
71730;SDS011;65964;43.496;3.710;2023-08-06T06:48:39;8.65;;;2.50;;
71730;SDS011;65964;43.496;3.710;2023-08-06T06:51:05;10.27;;;3.00;;
71730;SDS011;65964;43.496;3.710;2023-08-06T06:53:31;9.30;;;2.95;;
71730;SDS011;65964;43.496;3.710;2023-08-06T06:56:03;8.68;;;2.60;;
71730;SDS011;65964;43.496;3.710;2023-08-06T06:58:30;10.20;;;3.05;;
71730;SDS011;65964;43.496;3.710;2023-08-06T07:00:56;8.45;;;2.60;;
71730;SDS011;65964;43.496;3.710;2023-08-06T07:03:22;8.40;;;2.72;;
71730;SDS011;65964;43.496;3.710;2023-08-06T07:05:49;7.03;;;2.70;;
71730;SDS011;65964;43.496;3.710;2023-08-06T07:08:15;9.75;;;2.95;;
71730;SDS011;65964;43.496;3.710;2023-08-06T07:10:41;6.50;;;2.83;;
71730;SDS011;65964;43.496;3.710;2023-08-06T07:13:08;7.72;;;2.78;;
71730;SDS011;65964;43.496;3.710;2023-08-06T07:15:34;8.55;;;2.60;;
71730;SDS011;65964;43.496;3.710;2023-08-06T07:18:00;7.95;;;2.85;;
71730;SDS011;65964;43.496;3.710;2023-08-06T07:20:26;8.40;;;2.90;;
71730;SDS011;65964;43.496;3.710;2023-08-06T07:22:56;9.98;;;3.08;;
71730;SDS011;65964;43.496;3.710;2023-08-06T07:25:22;9.85;;;2.70;;
71730;SDS011;65964;43.496;3.710;2023-08-06T07:27:48;8.43;;;3.00;;
71730;SDS011;65964;43.496;3.710;2023-08-06T07:30:14;10.90;;;2.60;;
71730;SDS011;65964;43.496;3.710;2023-08-06T07:32:40;8.68;;;2.90;;
71730;SDS011;65964;43.496;3.710;2023-08-06T07:35:06;9.20;;;2.65;;
71730;SDS011;65964;43.496;3.710;2023-08-06T07:37:34;7.55;;;2.67;;
71730;SDS011;65964;43.496;3.710;2023-08-06T07:40:00;7.65;;;2.70;;
71730;SDS011;65964;43.496;3.710;2023-08-06T07:42:26;8.15;;;2.75;;
71730;SDS011;65964;43.496;3.710;2023-08-06T07:44:53;11.07;;;3.00;;
71730;SDS011;65964;43.496;3.710;2023-08-06T07:47:20;11.63;;;3.25;;
71730;SDS011;65964;43.496;3.710;2023-08-06T07:49:46;8.32;;;2.88;;
71730;SDS011;65964;43.496;3.710;2023-08-06T07:52:12;9.23;;;2.85;;
71730;SDS011;65964;43.496;3.710;2023-08-06T07:54:38;6.88;;;2.60;;
71730;SDS011;65964;43.496;3.710;2023-08-06T07:57:04;11.40;;;2.95;;
71730;SDS011;65964;43.496;3.710;2023-08-06T07:59:30;7.43;;;3.10;;
71730;SDS011;65964;43.496;3.710;2023-08-06T08:01:56;9.30;;;2.90;;
71730;SDS011;65964;43.496;3.710;2023-08-06T08:04:23;10.20;;;2.92;;
71730;SDS011;65964;43.496;3.710;2023-08-06T08:06:49;10.88;;;2.88;;
71730;SDS011;65964;43.496;3.710;2023-08-06T08:09:15;9.65;;;2.75;;
71730;SDS011;65964;43.496;3.710;2023-08-06T08:11:41;8.73;;;2.65;;
71730;SDS011;65964;43.496;3.710;2023-08-06T08:14:07;8.15;;;2.55;;
71730;SDS011;65964;43.496;3.710;2023-08-06T08:16:33;9.38;;;3.03;;
71730;SDS011;65964;43.496;3.710;2023-08-06T08:18:59;9.95;;;3.03;;
71730;SDS011;65964;43.496;3.710;2023-08-06T08:21:26;10.38;;;4.20;;
71730;SDS011;65964;43.496;3.710;2023-08-06T08:23:52;10.00;;;2.90;;
71730;SDS011;65964;43.496;3.710;2023-08-06T08:26:18;8.48;;;2.60;;
71730;SDS011;65964;43.496;3.710;2023-08-06T08:28:44;7.20;;;2.85;;
71730;SDS011;65964;43.496;3.710;2023-08-06T08:31:11;9.57;;;2.85;;
71730;SDS011;65964;43.496;3.710;2023-08-06T08:33:40;6.65;;;3.03;;
71730;SDS011;65964;43.496;3.710;2023-08-06T08:36:06;6.65;;;2.67;;
71730;SDS011;65964;43.496;3.710;2023-08-06T08:38:32;8.85;;;2.70;;
71730;SDS011;65964;43.496;3.710;2023-08-06T08:40:58;9.80;;;2.75;;
71730;SDS011;65964;43.496;3.710;2023-08-06T08:43:24;9.35;;;2.70;;
71730;SDS011;65964;43.496;3.710;2023-08-06T08:45:51;7.95;;;2.65;;
71730;SDS011;65964;43.496;3.710;2023-08-06T08:48:17;6.53;;;2.65;;
71730;SDS011;65964;43.496;3.710;2023-08-06T08:50:47;8.50;;;2.80;;
71730;SDS011;65964;43.496;3.710;2023-08-06T08:53:14;6.55;;;2.45;;
71730;SDS011;65964;43.496;3.710;2023-08-06T08:55:41;10.70;;;2.80;;
71730;SDS011;65964;43.496;3.710;2023-08-06T08:58:08;12.77;;;3.13;;
71730;SDS011;65964;43.496;3.710;2023-08-06T09:00:34;7.55;;;2.60;;
71730;SDS011;65964;43.496;3.710;2023-08-06T09:03:00;7.05;;;2.60;;
71730;SDS011;65964;43.496;3.710;2023-08-06T09:05:30;7.32;;;2.50;;
71730;SDS011;65964;43.496;3.710;2023-08-06T09:07:57;7.20;;;2.80;;
71730;SDS011;65964;43.496;3.710;2023-08-06T09:10:24;7.95;;;2.70;;
71730;SDS011;65964;43.496;3.710;2023-08-06T09:12:51;8.55;;;2.30;;
71730;SDS011;65964;43.496;3.710;2023-08-06T09:15:18;6.63;;;2.22;;
71730;SDS011;65964;43.496;3.710;2023-08-06T09:17:44;9.63;;;2.67;;
71730;SDS011;65964;43.496;3.710;2023-08-06T09:20:13;7.88;;;2.50;;
71730;SDS011;65964;43.496;3.710;2023-08-06T09:22:39;8.07;;;2.40;;
71730;SDS011;65964;43.496;3.710;2023-08-06T09:25:06;8.20;;;2.38;;
71730;SDS011;65964;43.496;3.710;2023-08-06T09:27:38;7.93;;;2.88;;
71730;SDS011;65964;43.496;3.710;2023-08-06T09:30:05;7.50;;;2.53;;
71730;SDS011;65964;43.496;3.710;2023-08-06T09:32:47;7.13;;;2.50;;
71730;SDS011;65964;43.496;3.710;2023-08-06T09:35:16;8.15;;;2.65;;
71730;SDS011;65964;43.496;3.710;2023-08-06T09:37:42;8.20;;;2.70;;
71730;SDS011;65964;43.496;3.710;2023-08-06T09:42:50;6.80;;;2.30;;
71730;SDS011;65964;43.496;3.710;2023-08-06T09:45:16;6.45;;;2.38;;
71730;SDS011;65964;43.496;3.710;2023-08-06T09:47:42;8.60;;;2.63;;
71730;SDS011;65964;43.496;3.710;2023-08-06T09:50:17;7.53;;;2.30;;
71730;SDS011;65964;43.496;3.710;2023-08-06T09:52:44;6.80;;;2.60;;
71730;SDS011;65964;43.496;3.710;2023-08-06T09:55:13;6.60;;;2.45;;
71730;SDS011;65964;43.496;3.710;2023-08-06T09:57:40;6.85;;;2.25;;
71730;SDS011;65964;43.496;3.710;2023-08-06T10:00:07;6.28;;;2.28;;
71730;SDS011;65964;43.496;3.710;2023-08-06T10:02:34;5.53;;;2.30;;
71730;SDS011;65964;43.496;3.710;2023-08-06T10:05:01;6.80;;;2.72;;
71730;SDS011;65964;43.496;3.710;2023-08-06T10:07:27;5.75;;;2.22;;
71730;SDS011;65964;43.496;3.710;2023-08-06T10:09:55;8.18;;;2.50;;
71730;SDS011;65964;43.496;3.710;2023-08-06T10:12:21;6.85;;;2.58;;
71730;SDS011;65964;43.496;3.710;2023-08-06T10:14:49;8.45;;;2.45;;
71730;SDS011;65964;43.496;3.710;2023-08-06T10:17:16;7.30;;;2.35;;
71730;SDS011;65964;43.496;3.710;2023-08-06T10:19:42;7.32;;;2.45;;
71730;SDS011;65964;43.496;3.710;2023-08-06T10:27:29;7.70;;;2.45;;
71730;SDS011;65964;43.496;3.710;2023-08-06T10:29:56;11.63;;;3.28;;
71730;SDS011;65964;43.496;3.710;2023-08-06T10:32:30;7.35;;;2.20;;
71730;SDS011;65964;43.496;3.710;2023-08-06T10:35:10;7.03;;;2.05;;
71730;SDS011;65964;43.496;3.710;2023-08-06T10:37:53;7.05;;;2.45;;
71730;SDS011;65964;43.496;3.710;2023-08-06T10:40:22;8.70;;;2.13;;
71730;SDS011;65964;43.496;3.710;2023-08-06T10:42:49;4.90;;;1.75;;
71730;SDS011;65964;43.496;3.710;2023-08-06T10:45:18;6.15;;;2.40;;
71730;SDS011;65964;43.496;3.710;2023-08-06T10:47:44;5.57;;;1.90;;
71730;SDS011;65964;43.496;3.710;2023-08-06T10:50:14;6.13;;;2.00;;
71730;SDS011;65964;43.496;3.710;2023-08-06T10:52:42;7.13;;;2.40;;
71730;SDS011;65964;43.496;3.710;2023-08-06T10:55:08;7.22;;;2.30;;
71730;SDS011;65964;43.496;3.710;2023-08-06T10:57:35;8.23;;;2.30;;
71730;SDS011;65964;43.496;3.710;2023-08-06T11:00:01;6.45;;;2.10;;
71730;SDS011;65964;43.496;3.710;2023-08-06T11:02:27;6.97;;;2.33;;
71730;SDS011;65964;43.496;3.710;2023-08-06T11:04:53;6.53;;;2.33;;
71730;SDS011;65964;43.496;3.710;2023-08-06T11:07:19;9.40;;;2.00;;
71730;SDS011;65964;43.496;3.710;2023-08-06T11:09:49;5.57;;;1.80;;
71730;SDS011;65964;43.496;3.710;2023-08-06T11:12:19;7.95;;;2.33;;
71730;SDS011;65964;43.496;3.710;2023-08-06T11:14:49;6.68;;;2.20;;
71730;SDS011;65964;43.496;3.710;2023-08-06T11:17:15;4.30;;;1.80;;
71730;SDS011;65964;43.496;3.710;2023-08-06T11:19:41;5.80;;;1.90;;
71730;SDS011;65964;43.496;3.710;2023-08-06T11:22:07;7.03;;;2.10;;
71730;SDS011;65964;43.496;3.710;2023-08-06T11:24:33;6.57;;;2.15;;
71730;SDS011;65964;43.496;3.710;2023-08-06T11:26:59;7.13;;;2.28;;
71730;SDS011;65964;43.496;3.710;2023-08-06T11:29:26;5.38;;;2.35;;
71730;SDS011;65964;43.496;3.710;2023-08-06T11:31:52;6.72;;;1.90;;
71730;SDS011;65964;43.496;3.710;2023-08-06T11:34:18;6.25;;;2.10;;
71730;SDS011;65964;43.496;3.710;2023-08-06T11:36:44;9.38;;;2.15;;
71730;SDS011;65964;43.496;3.710;2023-08-06T11:39:11;4.05;;;1.95;;
71730;SDS011;65964;43.496;3.710;2023-08-06T11:41:37;8.10;;;2.10;;
71730;SDS011;65964;43.496;3.710;2023-08-06T11:44:04;5.95;;;2.15;;
71730;SDS011;65964;43.496;3.710;2023-08-06T11:46:49;6.28;;;2.30;;
71730;SDS011;65964;43.496;3.710;2023-08-06T11:51:42;4.43;;;1.80;;
71730;SDS011;65964;43.496;3.710;2023-08-06T11:54:08;6.28;;;2.13;;
71730;SDS011;65964;43.496;3.710;2023-08-06T11:56:34;11.52;;;2.67;;
71730;SDS011;65964;43.496;3.710;2023-08-06T11:59:00;5.80;;;2.40;;
71730;SDS011;65964;43.496;3.710;2023-08-06T12:01:26;6.53;;;2.28;;
71730;SDS011;65964;43.496;3.710;2023-08-06T12:03:57;5.57;;;1.92;;
71730;SDS011;65964;43.496;3.710;2023-08-06T12:06:26;6.72;;;2.15;;
71730;SDS011;65964;43.496;3.710;2023-08-06T12:08:52;7.45;;;2.10;;
71730;SDS011;65964;43.496;3.710;2023-08-06T12:11:20;7.00;;;2.17;;
71730;SDS011;65964;43.496;3.710;2023-08-06T12:13:50;5.57;;;1.95;;
71730;SDS011;65964;43.496;3.710;2023-08-06T12:16:16;4.95;;;2.08;;
71730;SDS011;65964;43.496;3.710;2023-08-06T12:18:44;5.50;;;2.30;;
71730;SDS011;65964;43.496;3.710;2023-08-06T12:21:10;6.50;;;1.83;;
71730;SDS011;65964;43.496;3.710;2023-08-06T12:23:36;5.43;;;1.83;;
71730;SDS011;65964;43.496;3.710;2023-08-06T12:26:02;8.07;;;1.77;;
71730;SDS011;65964;43.496;3.710;2023-08-06T12:28:28;7.53;;;2.40;;
71730;SDS011;65964;43.496;3.710;2023-08-06T12:30:54;6.65;;;1.80;;
71730;SDS011;65964;43.496;3.710;2023-08-06T12:33:20;7.80;;;1.98;;
71730;SDS011;65964;43.496;3.710;2023-08-06T12:35:46;5.65;;;1.85;;
71730;SDS011;65964;43.496;3.710;2023-08-06T12:38:12;6.50;;;1.70;;
71730;SDS011;65964;43.496;3.710;2023-08-06T12:40:39;5.95;;;1.70;;
71730;SDS011;65964;43.496;3.710;2023-08-06T12:43:05;6.70;;;2.08;;
71730;SDS011;65964;43.496;3.710;2023-08-06T12:45:31;4.78;;;1.83;;
71730;SDS011;65964;43.496;3.710;2023-08-06T12:47:57;6.20;;;2.08;;
71730;SDS011;65964;43.496;3.710;2023-08-06T12:50:23;5.65;;;1.90;;
71730;SDS011;65964;43.496;3.710;2023-08-06T12:52:49;5.93;;;2.00;;
71730;SDS011;65964;43.496;3.710;2023-08-06T12:55:15;4.32;;;1.80;;
71730;SDS011;65964;43.496;3.710;2023-08-06T12:57:41;7.53;;;1.90;;
71730;SDS011;65964;43.496;3.710;2023-08-06T13:00:07;5.43;;;1.85;;
71730;SDS011;65964;43.496;3.710;2023-08-06T13:02:33;6.05;;;1.75;;
71730;SDS011;65964;43.496;3.710;2023-08-06T13:04:59;5.50;;;1.98;;
71730;SDS011;65964;43.496;3.710;2023-08-06T13:07:28;5.45;;;1.92;;
71730;SDS011;65964;43.496;3.710;2023-08-06T13:09:54;7.00;;;2.20;;
71730;SDS011;65964;43.496;3.710;2023-08-06T13:12:20;6.90;;;2.10;;
71730;SDS011;65964;43.496;3.710;2023-08-06T13:14:48;6.75;;;1.80;;
71730;SDS011;65964;43.496;3.710;2023-08-06T13:17:14;4.55;;;1.50;;
71730;SDS011;65964;43.496;3.710;2023-08-06T13:19:40;4.63;;;2.10;;
71730;SDS011;65964;43.496;3.710;2023-08-06T13:22:06;3.45;;;1.70;;
71730;SDS011;65964;43.496;3.710;2023-08-06T13:24:33;6.53;;;1.90;;
71730;SDS011;65964;43.496;3.710;2023-08-06T13:27:00;6.40;;;1.95;;
71730;SDS011;65964;43.496;3.710;2023-08-06T13:29:26;8.10;;;2.30;;
71730;SDS011;65964;43.496;3.710;2023-08-06T13:31:52;5.95;;;2.35;;
71730;SDS011;65964;43.496;3.710;2023-08-06T13:34:18;9.07;;;2.10;;
71730;SDS011;65964;43.496;3.710;2023-08-06T13:36:45;4.18;;;1.98;;
71730;SDS011;65964;43.496;3.710;2023-08-06T13:39:11;5.85;;;2.20;;
71730;SDS011;65964;43.496;3.710;2023-08-06T13:41:37;6.70;;;2.17;;
71730;SDS011;65964;43.496;3.710;2023-08-06T13:44:04;5.03;;;1.80;;
71730;SDS011;65964;43.496;3.710;2023-08-06T13:46:30;6.60;;;1.88;;
71730;SDS011;65964;43.496;3.710;2023-08-06T13:48:56;4.93;;;1.88;;
71730;SDS011;65964;43.496;3.710;2023-08-06T13:51:22;3.30;;;1.60;;
71730;SDS011;65964;43.496;3.710;2023-08-06T13:53:48;7.57;;;2.00;;
71730;SDS011;65964;43.496;3.710;2023-08-06T13:56:14;5.93;;;1.80;;
71730;SDS011;65964;43.496;3.710;2023-08-06T13:58:42;6.43;;;1.88;;
71730;SDS011;65964;43.496;3.710;2023-08-06T14:01:11;3.58;;;1.63;;
71730;SDS011;65964;43.496;3.710;2023-08-06T14:03:38;4.63;;;1.73;;
71730;SDS011;65964;43.496;3.710;2023-08-06T14:06:04;4.20;;;1.63;;
71730;SDS011;65964;43.496;3.710;2023-08-06T14:08:30;7.07;;;2.03;;
71730;SDS011;65964;43.496;3.710;2023-08-06T14:10:56;4.97;;;1.70;;
71730;SDS011;65964;43.496;3.710;2023-08-06T14:13:22;6.47;;;1.85;;
71730;SDS011;65964;43.496;3.710;2023-08-06T14:15:48;6.68;;;1.95;;
71730;SDS011;65964;43.496;3.710;2023-08-06T14:18:15;5.72;;;1.70;;
71730;SDS011;65964;43.496;3.710;2023-08-06T14:20:41;5.72;;;1.63;;
71730;SDS011;65964;43.496;3.710;2023-08-06T14:23:07;9.48;;;1.88;;
71730;SDS011;65964;43.496;3.710;2023-08-06T14:25:33;4.65;;;1.85;;
71730;SDS011;65964;43.496;3.710;2023-08-06T14:27:59;5.72;;;2.10;;
71730;SDS011;65964;43.496;3.710;2023-08-06T14:30:25;9.85;;;2.10;;
71730;SDS011;65964;43.496;3.710;2023-08-06T14:32:51;4.38;;;1.67;;
71730;SDS011;65964;43.496;3.710;2023-08-06T14:35:18;4.78;;;1.83;;
71730;SDS011;65964;43.496;3.710;2023-08-06T14:37:44;6.60;;;1.70;;
71730;SDS011;65964;43.496;3.710;2023-08-06T14:40:11;5.07;;;1.90;;
71730;SDS011;65964;43.496;3.710;2023-08-06T14:42:37;3.50;;;1.65;;
71730;SDS011;65964;43.496;3.710;2023-08-06T14:45:03;5.85;;;2.00;;
71730;SDS011;65964;43.496;3.710;2023-08-06T14:47:30;4.13;;;1.70;;
71730;SDS011;65964;43.496;3.710;2023-08-06T14:49:56;7.38;;;2.53;;
71730;SDS011;65964;43.496;3.710;2023-08-06T14:52:22;4.75;;;1.80;;
71730;SDS011;65964;43.496;3.710;2023-08-06T14:54:48;5.55;;;2.00;;